createdAt,value
2023-02-06T00:00:37.915Z,952.65
2023-02-06T00:01:38.846Z,952.69
2023-02-06T00:02:39.818Z,952.69
2023-02-06T00:03:39.868Z,952.67
2023-02-06T00:04:40.523Z,952.68
2023-02-06T00:05:41.202Z,952.68
2023-02-06T00:06:41.559Z,952.7
2023-02-06T00:07:42.035Z,952.74
2023-02-06T00:08:42.862Z,952.74
2023-02-06T00:09:43.493Z,952.78
2023-02-06T00:10:44.481Z,952.78
2023-02-06T00:11:45.191Z,952.77
2023-02-06T00:12:45.414Z,952.83
2023-02-06T00:13:46.068Z,952.79
2023-02-06T00:14:46.783Z,952.78
2023-02-06T00:15:47.308Z,952.81
2023-02-06T00:16:47.877Z,952.87
2023-02-06T00:17:48.810Z,952.88
2023-02-06T00:18:49.472Z,952.88
2023-02-06T00:19:49.957Z,952.89
2023-02-06T00:20:50.296Z,952.88
2023-02-06T00:21:50.935Z,952.85
2023-02-06T00:22:51.881Z,952.9
2023-02-06T00:23:52.526Z,952.92
2023-02-06T00:24:52.647Z,952.91
2023-02-06T00:25:52.853Z,952.92
2023-02-06T00:26:53.177Z,952.91
2023-02-06T00:27:53.700Z,952.93
2023-02-06T00:28:53.992Z,952.97
2023-02-06T00:29:54.915Z,952.99
2023-02-06T00:30:55.306Z,952.96
2023-02-06T00:31:55.415Z,953.01
2023-02-06T00:32:56.077Z,952.98
2023-02-06T00:33:57.054Z,953.04
2023-02-06T00:34:58.040Z,953.05
2023-02-06T00:35:58.527Z,953.07
2023-02-06T00:36:58.720Z,953.05
2023-02-06T00:37:58.921Z,953.08
2023-02-06T00:38:59.832Z,953.09
2023-02-06T00:40:00.478Z,953.11
2023-02-06T00:41:00.723Z,953.1
2023-02-06T00:42:01.419Z,953.12
2023-02-06T00:43:02.069Z,953.14
2023-02-06T00:44:02.435Z,953.13
2023-02-06T00:45:02.612Z,953.09
2023-02-06T00:46:03.274Z,953.08
2023-02-06T00:47:03.442Z,953.05
2023-02-06T00:48:03.645Z,953.04
2023-02-06T00:49:04.552Z,953.02
2023-02-06T00:50:04.736Z,952.99
2023-02-06T00:51:05.280Z,953.06
2023-02-06T00:52:05.500Z,953.02
2023-02-06T00:53:06.430Z,953.09
2023-02-06T00:54:06.633Z,953.08
2023-02-06T00:55:07.341Z,953.11
2023-02-06T00:56:07.856Z,953.14
2023-02-06T00:57:08.114Z,953.17
2023-02-06T00:58:09.061Z,953.19
2023-02-06T00:59:09.992Z,953.19
2023-02-06T01:00:10.494Z,953.16
2023-02-06T01:01:10.690Z,953.19
2023-02-06T01:02:11.162Z,953.15
2023-02-06T01:03:11.426Z,953.16
2023-02-06T01:04:12.080Z,953.18
2023-02-06T01:05:12.736Z,953.2
2023-02-06T01:06:13.434Z,953.23
2023-02-06T01:07:13.626Z,953.19
2023-02-06T01:08:13.828Z,953.2
2023-02-06T01:09:14.031Z,953.16
2023-02-06T01:10:14.232Z,953.16
2023-02-06T01:11:15.168Z,953.23
2023-02-06T01:12:15.744Z,953.21
2023-02-06T01:13:15.992Z,953.25
2023-02-06T01:14:16.630Z,953.24
2023-02-06T01:15:16.916Z,953.29
2023-02-06T01:16:17.458Z,953.24
2023-02-06T01:17:17.809Z,953.23
2023-02-06T01:18:18.138Z,953.26
2023-02-06T01:19:18.620Z,953.19
2023-02-06T01:20:18.831Z,953.2
2023-02-06T01:21:19.467Z,953.18
2023-02-06T01:22:19.664Z,953.13
2023-02-06T01:23:19.869Z,953.14
2023-02-06T01:24:20.781Z,953.12
2023-02-06T01:25:21.113Z,953.12
2023-02-06T01:26:21.586Z,953.07
2023-02-06T01:27:22.237Z,953.09
2023-02-06T01:28:22.758Z,953.08
2023-02-06T01:29:22.991Z,953.09
2023-02-06T01:30:23.617Z,953.08
2023-02-06T01:31:24.723Z,953.09
2023-02-06T01:32:24.999Z,953.14
2023-02-06T01:33:25.193Z,953.13
2023-02-06T01:34:25.818Z,953.16
2023-02-06T01:35:26.804Z,953.14
2023-02-06T01:36:26.889Z,953.1
2023-02-06T01:37:27.078Z,953.11
2023-02-06T01:38:27.580Z,953.07
2023-02-06T01:39:28.283Z,953.14
2023-02-06T01:40:28.770Z,953.17
2023-02-06T01:41:29.331Z,953.16
2023-02-06T01:42:30.315Z,953.21
2023-02-06T01:43:31.055Z,953.22
2023-02-06T01:44:31.571Z,953.21
2023-02-06T01:45:32.302Z,953.21
2023-02-06T01:46:33.153Z,953.19
2023-02-06T01:47:33.699Z,953.15
2023-02-06T01:48:33.954Z,953.2
2023-02-06T01:49:34.444Z,953.22
2023-02-06T01:50:35.369Z,953.2
2023-02-06T01:51:35.858Z,953.19
2023-02-06T01:52:36.065Z,953.11
2023-02-06T01:53:36.671Z,953.07
2023-02-06T01:54:36.886Z,953.05
2023-02-06T01:55:37.403Z,953.09
2023-02-06T01:56:37.449Z,953.04
2023-02-06T01:57:37.769Z,953.02
2023-02-06T01:58:38.298Z,953.06
2023-02-06T01:59:38.935Z,953.03
2023-02-06T02:00:39.209Z,953.03
2023-02-06T02:01:39.434Z,953.03
2023-02-06T02:02:39.871Z,953.05
2023-02-06T02:03:40.071Z,953.05
2023-02-06T02:04:40.982Z,953.07
2023-02-06T02:05:42.034Z,953.02
2023-02-06T02:06:42.950Z,953.04
2023-02-06T02:07:43.858Z,953.01
2023-02-06T02:08:44.766Z,953.03
2023-02-06T02:09:45.074Z,953.02
2023-02-06T02:10:45.585Z,952.99
2023-02-06T02:11:45.771Z,953
2023-02-06T02:12:46.047Z,952.99
2023-02-06T02:13:46.390Z,952.95
2023-02-06T02:14:46.814Z,952.96
2023-02-06T02:15:46.754Z,952.99
2023-02-06T02:16:47.235Z,953.02
2023-02-06T02:17:47.444Z,953
2023-02-06T02:18:48.353Z,953.03
2023-02-06T02:19:49.088Z,953.02
2023-02-06T02:20:50.017Z,953.03
2023-02-06T02:21:50.366Z,953.06
2023-02-06T02:22:51.304Z,953.05
2023-02-06T02:23:52.255Z,953
2023-02-06T02:24:53.179Z,953.02
2023-02-06T02:25:53.501Z,952.96
2023-02-06T02:26:53.705Z,952.97
2023-02-06T02:27:54.016Z,952.95
2023-02-06T02:28:54.560Z,952.91
2023-02-06T02:29:55.068Z,952.88
2023-02-06T02:30:55.748Z,952.89
2023-02-06T02:31:56.347Z,952.87
2023-02-06T02:32:56.578Z,952.84
2023-02-06T02:33:57.230Z,952.86
2023-02-06T02:34:58.134Z,952.84
2023-02-06T02:35:58.860Z,952.86
2023-02-06T02:36:59.358Z,952.87
2023-02-06T02:37:59.976Z,952.89
2023-02-06T02:39:00.493Z,952.9
2023-02-06T02:40:01.000Z,952.87
2023-02-06T02:41:02.028Z,952.88
2023-02-06T02:42:02.935Z,952.91
2023-02-06T02:43:03.494Z,952.91
2023-02-06T02:44:04.436Z,952.92
2023-02-06T02:45:04.658Z,952.94
2023-02-06T02:46:04.986Z,952.88
2023-02-06T02:47:05.499Z,952.94
2023-02-06T02:48:05.772Z,952.94
2023-02-06T02:49:06.128Z,953
2023-02-06T02:50:07.027Z,953.01
2023-02-06T02:51:07.246Z,952.95
2023-02-06T02:52:07.880Z,952.95
2023-02-06T02:53:08.509Z,952.94
2023-02-06T02:54:08.838Z,952.98
2023-02-06T02:55:09.333Z,952.94
2023-02-06T02:56:10.419Z,952.93
2023-02-06T02:57:11.346Z,952.92
2023-02-06T02:58:11.692Z,952.89
2023-02-06T02:59:11.923Z,952.89
2023-02-06T03:00:12.131Z,952.89
2023-02-06T03:01:12.347Z,952.9
2023-02-06T03:02:12.806Z,952.94
2023-02-06T03:03:13.634Z,952.91
2023-02-06T03:04:13.854Z,952.89
2023-02-06T03:05:14.070Z,952.89
2023-02-06T03:06:14.831Z,952.82
2023-02-06T03:07:15.747Z,952.82
2023-02-06T03:08:16.240Z,952.83
2023-02-06T03:09:16.448Z,952.78
2023-02-06T03:10:17.373Z,952.83
2023-02-06T03:11:17.594Z,952.78
2023-02-06T03:12:18.527Z,952.78
2023-02-06T03:13:19.526Z,952.83
2023-02-06T03:14:20.499Z,952.88
2023-02-06T03:15:21.414Z,952.87
2023-02-06T03:16:22.539Z,952.85
2023-02-06T03:17:22.748Z,952.89
2023-02-06T03:18:23.652Z,952.92
2023-02-06T03:19:23.985Z,952.86
2023-02-06T03:20:24.184Z,952.88
2023-02-06T03:21:24.436Z,952.88
2023-02-06T03:22:24.769Z,952.91
2023-02-06T03:23:25.686Z,952.96
2023-02-06T03:24:26.731Z,952.96
2023-02-06T03:25:27.636Z,953.05
2023-02-06T03:26:27.819Z,953.07
2023-02-06T03:27:28.748Z,953.13
2023-02-06T03:28:29.392Z,953.08
2023-02-06T03:29:29.612Z,953.05
2023-02-06T03:30:29.863Z,953.02
2023-02-06T03:31:29.975Z,953.07
2023-02-06T03:32:30.864Z,953.11
2023-02-06T03:33:31.054Z,953.13
2023-02-06T03:34:31.948Z,953.16
2023-02-06T03:35:32.145Z,953.14
2023-02-06T03:36:33.213Z,953.11
2023-02-06T03:37:34.139Z,953.17
2023-02-06T03:38:34.477Z,953.11
2023-02-06T03:39:35.380Z,953.14
2023-02-06T03:40:36.355Z,953.13
2023-02-06T03:41:36.850Z,953.11
2023-02-06T03:42:37.048Z,953.15
2023-02-06T03:43:37.632Z,953.11
2023-02-06T03:44:38.134Z,953.15
2023-02-06T03:45:38.844Z,953.14
2023-02-06T03:46:38.901Z,953.11
2023-02-06T03:47:39.391Z,953.09
2023-02-06T03:48:40.327Z,953.05
2023-02-06T03:49:40.522Z,953.02
2023-02-06T03:50:41.456Z,953.04
2023-02-06T03:51:41.667Z,953.03
2023-02-06T03:52:42.583Z,952.99
2023-02-06T03:53:42.934Z,953.01
2023-02-06T03:54:43.858Z,953.04
2023-02-06T03:55:44.773Z,953.09
2023-02-06T03:56:45.492Z,953.06
2023-02-06T03:57:46.452Z,953.09
2023-02-06T03:58:46.730Z,953.11
2023-02-06T03:59:47.690Z,953.12
2023-02-06T04:00:48.677Z,953.1
2023-02-06T04:01:49.725Z,953.08
2023-02-06T04:02:50.070Z,953.11
2023-02-06T04:03:50.286Z,953.11
2023-02-06T04:04:51.208Z,953.16
2023-02-06T04:05:52.123Z,953.15
2023-02-06T04:06:53.171Z,953.18
2023-02-06T04:07:53.371Z,953.15
2023-02-06T04:08:53.575Z,953.16
2023-02-06T04:09:54.496Z,953.18
2023-02-06T04:10:55.121Z,953.17
2023-02-06T04:11:56.053Z,953.16
2023-02-06T04:12:56.545Z,953.19
2023-02-06T04:13:56.816Z,953.18
2023-02-06T04:14:57.754Z,953.21
2023-02-06T04:15:58.775Z,953.17
2023-02-06T04:16:59.010Z,953.16
2023-02-06T04:18:01.459Z,953.19
2023-02-06T04:19:00.564Z,953.22
2023-02-06T04:20:00.752Z,953.2
2023-02-06T04:21:01.727Z,953.19
2023-02-06T04:22:01.981Z,953.21
2023-02-06T04:23:02.900Z,953.22
2023-02-06T04:24:03.829Z,953.22
2023-02-06T04:25:04.048Z,953.22
2023-02-06T04:26:04.561Z,953.25
2023-02-06T04:27:05.324Z,953.25
2023-02-06T04:28:05.700Z,953.29
2023-02-06T04:29:06.439Z,953.32
2023-02-06T04:30:07.376Z,953.34
2023-02-06T04:31:08.382Z,953.33
2023-02-06T04:32:08.726Z,953.36
2023-02-06T04:33:09.220Z,953.43
2023-02-06T04:34:09.417Z,953.45
2023-02-06T04:35:10.334Z,953.5
2023-02-06T04:36:11.259Z,953.51
2023-02-06T04:37:11.528Z,953.56
2023-02-06T04:38:12.009Z,953.52
2023-02-06T04:39:12.210Z,953.46
2023-02-06T04:40:12.404Z,953.49
2023-02-06T04:41:13.336Z,953.42
2023-02-06T04:42:13.536Z,953.44
2023-02-06T04:43:13.726Z,953.43
2023-02-06T04:44:13.999Z,953.42
2023-02-06T04:45:14.941Z,953.37
2023-02-06T04:46:15.154Z,953.38
2023-02-06T04:47:15.943Z,953.41
2023-02-06T04:48:16.573Z,953.37
2023-02-06T04:49:17.523Z,953.39
2023-02-06T04:50:18.168Z,953.37
2023-02-06T04:51:18.388Z,953.38
2023-02-06T04:52:19.326Z,953.34
2023-02-06T04:53:20.241Z,953.32
2023-02-06T04:54:21.146Z,953.29
2023-02-06T04:55:21.606Z,953.25
2023-02-06T04:56:21.839Z,953.27
2023-02-06T04:57:22.857Z,953.26
2023-02-06T04:58:23.062Z,953.26
2023-02-06T04:59:23.427Z,953.27
2023-02-06T05:00:24.367Z,953.24
2023-02-06T05:01:25.095Z,953.25
2023-02-06T05:02:25.592Z,953.24
2023-02-06T05:03:26.240Z,953.28
2023-02-06T05:04:27.178Z,953.32
2023-02-06T05:05:28.130Z,953.3
2023-02-06T05:06:28.844Z,953.34
2023-02-06T05:07:29.622Z,953.26
2023-02-06T05:08:29.833Z,953.25
2023-02-06T05:09:30.025Z,953.21
2023-02-06T05:10:30.521Z,953.21
2023-02-06T05:11:31.451Z,953.22
2023-02-06T05:12:31.698Z,953.15
2023-02-06T05:13:31.890Z,953.15
2023-02-06T05:14:32.456Z,953.22
2023-02-06T05:15:32.703Z,953.24
2023-02-06T05:16:33.357Z,953.23
2023-02-06T05:17:33.802Z,953.26
2023-02-06T05:18:34.128Z,953.24
2023-02-06T05:19:35.040Z,953.21
2023-02-06T05:20:35.204Z,953.22
2023-02-06T05:21:35.524Z,953.21
2023-02-06T05:22:35.733Z,953.19
2023-02-06T05:23:35.945Z,953.18
2023-02-06T05:24:36.152Z,953.18
2023-02-06T05:25:37.223Z,953.19
2023-02-06T05:26:37.542Z,953.23
2023-02-06T05:27:37.676Z,953.2
2023-02-06T05:28:38.111Z,953.25
2023-02-06T05:29:39.088Z,953.21
2023-02-06T05:30:40.106Z,953.26
2023-02-06T05:31:40.511Z,953.28
2023-02-06T05:32:41.069Z,953.28
2023-02-06T05:33:41.563Z,953.32
2023-02-06T05:34:41.744Z,953.28
2023-02-06T05:35:42.661Z,953.26
2023-02-06T05:36:42.864Z,953.23
2023-02-06T05:37:43.417Z,953.21
2023-02-06T05:38:43.900Z,953.21
2023-02-06T05:39:44.115Z,953.18
2023-02-06T05:40:44.930Z,953.16
2023-02-06T05:41:45.187Z,953.19
2023-02-06T05:42:45.381Z,953.23
2023-02-06T05:43:46.335Z,953.17
2023-02-06T05:44:46.624Z,953.19
2023-02-06T05:45:47.598Z,953.22
2023-02-06T05:46:48.203Z,953.2
2023-02-06T05:47:48.948Z,953.19
2023-02-06T05:48:49.645Z,953.11
2023-02-06T05:49:49.885Z,953.12
2023-02-06T05:50:50.802Z,953.1
2023-02-06T05:51:51.029Z,953.02
2023-02-06T05:52:51.704Z,952.97
2023-02-06T05:53:52.607Z,952.93
2023-02-06T05:54:52.948Z,952.89
2023-02-06T05:55:53.874Z,952.87
2023-02-06T05:56:54.229Z,952.87
2023-02-06T05:57:54.372Z,952.88
2023-02-06T05:58:54.909Z,952.87
2023-02-06T05:59:55.185Z,952.85
2023-02-06T06:00:55.413Z,952.87
2023-02-06T06:01:56.112Z,952.83
2023-02-06T06:02:56.320Z,952.79
2023-02-06T06:03:57.254Z,952.79
2023-02-06T06:04:57.785Z,952.8
2023-02-06T06:05:57.852Z,952.76
2023-02-06T06:06:58.759Z,952.73
2023-02-06T06:07:59.067Z,952.73
2023-02-06T06:08:59.283Z,952.69
2023-02-06T06:09:59.495Z,952.67
2023-02-06T06:11:01.804Z,952.68
2023-02-06T06:12:00.253Z,952.67
2023-02-06T06:13:01.160Z,952.64
2023-02-06T06:14:01.812Z,952.61
2023-02-06T06:15:02.378Z,952.57
2023-02-06T06:16:02.687Z,952.57
2023-02-06T06:17:03.242Z,952.5
2023-02-06T06:18:03.474Z,952.51
2023-02-06T06:19:04.413Z,952.54
2023-02-06T06:20:04.899Z,952.55
2023-02-06T06:21:05.395Z,952.62
2023-02-06T06:22:06.035Z,952.64
2023-02-06T06:23:06.521Z,952.64
2023-02-06T06:24:07.160Z,952.62
2023-02-06T06:25:07.252Z,952.61
2023-02-06T06:26:07.460Z,952.58
2023-02-06T06:27:08.014Z,952.63
2023-02-06T06:28:08.457Z,952.59
2023-02-06T06:29:08.875Z,952.63
2023-02-06T06:30:09.584Z,952.65
2023-02-06T06:31:09.906Z,952.64
2023-02-06T06:32:09.963Z,952.69
2023-02-06T06:33:10.181Z,952.64
2023-02-06T06:34:10.681Z,952.66
2023-02-06T06:35:10.889Z,952.69
2023-02-06T06:36:13.504Z,952.69
2023-02-06T06:37:11.566Z,952.7
2023-02-06T06:38:11.865Z,952.68
2023-02-06T06:39:12.065Z,952.63
2023-02-06T06:40:13.005Z,952.62
2023-02-06T06:41:13.915Z,952.62
2023-02-06T06:42:14.884Z,952.64
2023-02-06T06:43:15.093Z,952.67
2023-02-06T06:44:16.025Z,952.7
2023-02-06T06:45:16.600Z,952.76
2023-02-06T06:46:17.402Z,952.79
2023-02-06T06:47:18.411Z,952.81
2023-02-06T06:48:18.754Z,952.8
2023-02-06T06:49:19.407Z,952.84
2023-02-06T06:50:19.912Z,952.85
2023-02-06T06:51:20.542Z,952.88
2023-02-06T06:52:25.182Z,952.88
2023-02-06T06:53:21.722Z,952.8
2023-02-06T06:54:21.928Z,952.91
2023-02-06T06:55:22.146Z,952.9
2023-02-06T06:56:22.383Z,952.91
2023-02-06T06:57:23.015Z,952.93
2023-02-06T06:58:23.339Z,952.92
2023-02-06T06:59:23.852Z,952.93
2023-02-06T07:00:24.406Z,952.95
2023-02-06T07:01:24.716Z,952.95
2023-02-06T07:02:25.006Z,952.96
2023-02-06T07:03:25.990Z,952.91
2023-02-06T07:04:26.540Z,952.89
2023-02-06T07:05:27.179Z,952.89
2023-02-06T07:06:28.057Z,952.88
2023-02-06T07:07:29.035Z,952.92
2023-02-06T07:08:29.558Z,952.9
2023-02-06T07:09:30.482Z,952.93
2023-02-06T07:10:31.154Z,952.96
2023-02-06T07:11:31.650Z,952.97
2023-02-06T07:12:32.138Z,952.97
2023-02-06T07:13:32.367Z,953
2023-02-06T07:14:33.040Z,953.01
2023-02-06T07:15:34.013Z,953.05
2023-02-06T07:16:34.716Z,953.05
2023-02-06T07:17:35.271Z,953.09
2023-02-06T07:18:36.276Z,953.06
2023-02-06T07:19:36.481Z,953.03
2023-02-06T07:20:37.395Z,952.97
2023-02-06T07:21:37.592Z,952.93
2023-02-06T07:22:38.543Z,952.92
2023-02-06T07:23:38.822Z,952.95
2023-02-06T07:24:39.455Z,952.97
2023-02-06T07:25:39.988Z,952.95
2023-02-06T07:26:40.926Z,952.98
2023-02-06T07:27:41.142Z,953
2023-02-06T07:28:42.102Z,953.01
2023-02-06T07:29:42.732Z,953.01
2023-02-06T07:30:43.761Z,953.04
2023-02-06T07:31:44.335Z,953.02
2023-02-06T07:32:44.457Z,953.01
2023-02-06T07:33:44.644Z,952.97
2023-02-06T07:34:45.556Z,952.94
2023-02-06T07:35:46.487Z,953
2023-02-06T07:36:46.844Z,952.96
2023-02-06T07:37:47.042Z,952.96
2023-02-06T07:38:47.326Z,952.95
2023-02-06T07:39:47.950Z,952.95
2023-02-06T07:40:48.437Z,952.91
2023-02-06T07:41:48.998Z,952.9
2023-02-06T07:42:49.240Z,952.89
2023-02-06T07:43:50.150Z,952.82
2023-02-06T07:44:51.062Z,952.78
2023-02-06T07:45:51.466Z,952.77
2023-02-06T07:46:52.216Z,952.73
2023-02-06T07:47:52.535Z,952.78
2023-02-06T07:48:52.860Z,952.85
2023-02-06T07:49:53.817Z,952.91
2023-02-06T07:50:54.449Z,952.93
2023-02-06T07:51:55.085Z,952.98
2023-02-06T07:52:56.019Z,952.96
2023-02-06T07:53:56.319Z,952.98
2023-02-06T07:54:56.559Z,952.97
2023-02-06T07:55:57.470Z,952.92
2023-02-06T07:56:57.973Z,952.96
2023-02-06T07:57:58.902Z,952.94
2023-02-06T07:58:59.198Z,952.93
2023-02-06T07:59:59.862Z,952.98
2023-02-06T08:01:00.546Z,952.97
2023-02-06T08:02:01.158Z,952.97
2023-02-06T08:03:01.399Z,952.99
2023-02-06T08:04:01.651Z,953
2023-02-06T08:05:02.118Z,952.97
2023-02-06T08:06:02.510Z,952.97
2023-02-06T08:07:03.419Z,952.98
2023-02-06T08:08:03.619Z,952.99
2023-02-06T08:09:03.948Z,952.98
2023-02-06T08:10:05.037Z,952.95
2023-02-06T08:11:05.391Z,952.94
2023-02-06T08:12:05.889Z,952.95
2023-02-06T08:13:06.039Z,952.98
2023-02-06T08:14:06.278Z,952.98
2023-02-06T08:15:06.405Z,953.02
2023-02-06T08:16:06.734Z,952.99
2023-02-06T08:17:07.007Z,953.04
2023-02-06T08:18:07.896Z,953.01
2023-02-06T08:19:08.554Z,952.97
2023-02-06T08:20:08.768Z,952.97
2023-02-06T08:21:09.117Z,953.02
2023-02-06T08:22:09.452Z,953.01
2023-02-06T08:23:10.022Z,953.06
2023-02-06T08:24:10.255Z,953.09
2023-02-06T08:25:11.177Z,953.14
2023-02-06T08:26:12.156Z,953.17
2023-02-06T08:27:12.354Z,953.17
2023-02-06T08:28:13.001Z,953.18
2023-02-06T08:29:13.351Z,953.24
2023-02-06T08:30:14.325Z,953.28
2023-02-06T08:31:14.983Z,953.29
2023-02-06T08:32:15.077Z,953.26
2023-02-06T08:33:15.298Z,953.31
2023-02-06T08:34:15.532Z,953.31
2023-02-06T08:35:15.727Z,953.28
2023-02-06T08:36:15.938Z,953.3
2023-02-06T08:37:16.449Z,953.28
2023-02-06T08:38:16.953Z,953.29
2023-02-06T08:39:17.689Z,953.3
2023-02-06T08:40:18.205Z,953.3
2023-02-06T08:41:18.603Z,953.43
2023-02-06T08:42:19.560Z,953.41
2023-02-06T08:43:19.780Z,953.4
2023-02-06T08:44:19.961Z,953.44
2023-02-06T08:45:20.916Z,953.41
2023-02-06T08:46:21.604Z,953.42
2023-02-06T08:47:21.813Z,953.39
2023-02-06T08:48:22.349Z,953.37
2023-02-06T08:49:22.659Z,953.38
2023-02-06T08:50:22.866Z,953.37
2023-02-06T08:51:22.970Z,953.38
2023-02-06T08:52:23.479Z,953.4
2023-02-06T08:53:24.423Z,953.42
2023-02-06T08:54:24.930Z,953.44
2023-02-06T08:55:25.489Z,953.44
2023-02-06T08:56:25.929Z,953.48
2023-02-06T08:57:26.440Z,953.52
2023-02-06T08:58:27.464Z,953.53
2023-02-06T08:59:27.808Z,953.53
2023-02-06T09:00:28.463Z,953.54
2023-02-06T09:01:29.678Z,953.56
2023-02-06T09:02:30.552Z,953.59
2023-02-06T09:03:31.045Z,953.59
2023-02-06T09:04:31.272Z,953.57
2023-02-06T09:05:31.507Z,953.62
2023-02-06T09:06:31.711Z,953.59
2023-02-06T09:07:32.642Z,953.6
2023-02-06T09:08:33.564Z,953.61
2023-02-06T09:09:33.730Z,953.61
2023-02-06T09:10:34.224Z,953.6
2023-02-06T09:11:34.469Z,953.61
2023-02-06T09:12:35.125Z,953.6
2023-02-06T09:13:36.051Z,953.61
2023-02-06T09:14:37.031Z,953.58
2023-02-06T09:15:38.006Z,953.58
2023-02-06T09:16:38.649Z,953.56
2023-02-06T09:17:39.158Z,953.59
2023-02-06T09:18:39.386Z,953.57
2023-02-06T09:19:39.600Z,953.64
2023-02-06T09:20:40.233Z,953.64
2023-02-06T09:21:41.168Z,953.63
2023-02-06T09:22:41.681Z,953.64
2023-02-06T09:23:42.339Z,953.67
2023-02-06T09:24:43.287Z,953.63
2023-02-06T09:25:43.787Z,953.62
2023-02-06T09:26:58.340Z,953.61
2023-02-06T09:27:44.179Z,953.61
2023-02-06T09:28:44.336Z,953.6
2023-02-06T09:29:45.393Z,953.61
2023-02-06T09:30:45.859Z,953.64
2023-02-06T09:31:46.794Z,953.59
2023-02-06T09:32:47.125Z,953.59
2023-02-06T09:33:48.184Z,953.54
2023-02-06T09:34:49.212Z,953.6
2023-02-06T09:35:48.775Z,953.59
2023-02-06T09:36:49.070Z,953.61
2023-02-06T09:37:49.334Z,953.6
2023-02-06T09:38:49.847Z,953.6
2023-02-06T09:39:50.146Z,953.58
2023-02-06T09:40:50.826Z,953.56
2023-02-06T09:41:51.515Z,953.56
2023-02-06T09:42:52.014Z,953.53
2023-02-06T09:43:52.681Z,953.58
2023-02-06T09:44:52.931Z,953.54
2023-02-06T09:45:53.842Z,953.55
2023-02-06T09:46:54.235Z,953.58
2023-02-06T09:47:54.484Z,953.6
2023-02-06T09:48:54.755Z,953.61
2023-02-06T09:49:55.108Z,953.6
2023-02-06T09:50:55.751Z,953.59
2023-02-06T09:51:56.653Z,953.63
2023-02-06T09:52:56.894Z,953.65
2023-02-06T09:53:57.322Z,953.64
2023-02-06T09:54:57.526Z,953.64
2023-02-06T09:55:58.019Z,953.6
2023-02-06T09:56:58.224Z,953.6
2023-02-06T09:57:59.153Z,953.59
2023-02-06T09:59:00.091Z,953.61
2023-02-06T10:00:00.257Z,953.6
2023-02-06T10:01:00.765Z,953.63
2023-02-06T10:02:01.500Z,953.59
2023-02-06T10:03:02.036Z,953.53
2023-02-06T10:04:02.962Z,953.54
2023-02-06T10:05:03.765Z,953.54
2023-02-06T10:06:03.861Z,953.51
2023-02-06T10:07:04.827Z,953.49
2023-02-06T10:08:05.461Z,953.5
2023-02-06T10:09:05.968Z,953.48
2023-02-06T10:10:06.580Z,953.49
2023-02-06T10:11:07.327Z,953.49
2023-02-06T10:12:07.822Z,953.47
2023-02-06T10:13:08.770Z,953.4
2023-02-06T10:14:09.753Z,953.35
2023-02-06T10:15:10.238Z,953.33
2023-02-06T10:16:11.824Z,953.3
2023-02-06T10:17:11.503Z,953.33
2023-02-06T10:18:11.740Z,953.33
2023-02-06T10:19:12.305Z,953.32
2023-02-06T10:20:12.587Z,953.28
2023-02-06T10:21:12.815Z,953.29
2023-02-06T10:22:13.570Z,953.26
2023-02-06T10:23:13.784Z,953.24
2023-02-06T10:24:14.742Z,953.31
2023-02-06T10:25:15.748Z,953.3
2023-02-06T10:26:16.744Z,953.3
2023-02-06T10:27:16.993Z,953.23
2023-02-06T10:28:18.127Z,953.15
2023-02-06T10:29:18.535Z,953.09
2023-02-06T10:30:19.522Z,953.08
2023-02-06T10:31:19.953Z,953.05
2023-02-06T10:32:20.207Z,953.06
2023-02-06T10:33:25.434Z,953.03
2023-02-06T10:34:21.074Z,953.03
2023-02-06T10:35:22.015Z,952.95
2023-02-06T10:36:22.400Z,952.98
2023-02-06T10:37:22.951Z,952.94
2023-02-06T10:38:23.166Z,952.94
2023-02-06T10:39:23.473Z,952.92
2023-02-06T10:40:24.481Z,952.85
2023-02-06T10:41:25.007Z,952.86
2023-02-06T10:42:25.218Z,952.86
2023-02-06T10:43:25.452Z,952.83
2023-02-06T10:44:26.503Z,952.79
2023-02-06T10:45:26.726Z,952.81
2023-02-06T10:46:27.408Z,952.79
2023-02-06T10:47:28.107Z,952.76
2023-02-06T10:48:28.752Z,952.73
2023-02-06T10:49:29.742Z,952.69
2023-02-06T10:50:30.571Z,952.62
2023-02-06T10:51:31.045Z,952.61
2023-02-06T10:52:31.984Z,952.59
2023-02-06T10:53:32.915Z,952.58
2023-02-06T10:54:33.900Z,952.53
2023-02-06T10:55:34.595Z,952.49
2023-02-06T10:56:35.675Z,952.44
2023-02-06T10:57:36.627Z,952.46
2023-02-06T10:58:37.554Z,952.43
2023-02-06T10:59:38.139Z,952.4
2023-02-06T11:00:38.847Z,952.43
2023-02-06T11:01:39.660Z,952.34
2023-02-06T11:02:39.766Z,952.29
2023-02-06T11:03:40.454Z,952.26
2023-02-06T11:04:40.989Z,952.27
2023-02-06T11:05:41.287Z,952.22
2023-02-06T11:06:41.573Z,952.19
2023-02-06T11:07:42.571Z,952.18
2023-02-06T11:08:43.335Z,952.15
2023-02-06T11:09:43.721Z,952.15
2023-02-06T11:10:44.209Z,952.11
2023-02-06T11:11:45.659Z,952.02
2023-02-06T11:12:45.493Z,952.02
2023-02-06T11:13:46.149Z,952.02
2023-02-06T11:14:47.090Z,952
2023-02-06T11:15:48.078Z,952.04
2023-02-06T11:16:49.085Z,951.99
2023-02-06T11:17:49.547Z,951.97
2023-02-06T11:18:50.515Z,951.95
2023-02-06T11:19:51.519Z,951.92
2023-02-06T11:20:54.254Z,951.91
2023-02-06T11:21:52.750Z,951.94
2023-02-06T11:22:53.830Z,951.96
2023-02-06T11:23:53.899Z,951.98
2023-02-06T11:24:54.937Z,951.99
2023-02-06T11:25:55.117Z,952
2023-02-06T11:26:56.046Z,951.97
2023-02-06T11:27:57.030Z,951.98
2023-02-06T11:28:57.393Z,952.07
2023-02-06T11:29:57.627Z,952.04
2023-02-06T11:30:57.897Z,952.08
2023-02-06T11:31:58.466Z,952.05
2023-02-06T11:33:04.534Z,952.08
2023-02-06T11:33:59.327Z,952.08
2023-02-06T11:34:59.862Z,952.07
2023-02-06T11:36:00.796Z,952.01
2023-02-06T11:37:01.161Z,951.98
2023-02-06T11:38:01.375Z,951.96
2023-02-06T11:39:01.870Z,951.93
2023-02-06T11:40:02.549Z,951.95
2023-02-06T11:41:02.848Z,951.9
2023-02-06T11:42:03.863Z,951.84
2023-02-06T11:43:04.804Z,951.8
2023-02-06T11:44:05.740Z,951.8
2023-02-06T11:45:06.279Z,951.81
2023-02-06T11:46:07.236Z,951.75
2023-02-06T11:47:07.946Z,951.77
2023-02-06T11:48:08.181Z,951.77
2023-02-06T11:49:08.726Z,951.76
2023-02-06T11:50:09.029Z,951.72
2023-02-06T11:51:09.646Z,951.72
2023-02-06T11:52:09.849Z,951.69
2023-02-06T11:53:10.056Z,951.67
2023-02-06T11:54:10.597Z,951.59
2023-02-06T11:55:11.253Z,951.53
2023-02-06T11:56:11.499Z,951.47
2023-02-06T11:57:12.011Z,951.47
2023-02-06T11:58:12.277Z,951.48
2023-02-06T11:59:12.912Z,951.45
2023-02-06T12:00:13.577Z,951.51
2023-02-06T12:01:13.950Z,951.41
2023-02-06T12:02:14.222Z,951.41
2023-02-06T12:03:14.721Z,951.34
2023-02-06T12:04:15.513Z,951.3
2023-02-06T12:05:15.804Z,951.33
2023-02-06T12:06:16.488Z,951.38
2023-02-06T12:07:17.472Z,951.43
2023-02-06T12:08:18.446Z,951.47
2023-02-06T12:09:19.357Z,951.49
2023-02-06T12:10:20.070Z,951.49
2023-02-06T12:11:20.678Z,951.48
2023-02-06T12:12:21.183Z,951.55
2023-02-06T12:13:21.466Z,951.55
2023-02-06T12:14:22.403Z,951.54
2023-02-06T12:15:45.231Z,951.52
2023-02-06T12:16:24.056Z,951.47
2023-02-06T12:17:24.568Z,951.5
2023-02-06T12:18:25.365Z,951.48
2023-02-06T12:19:25.988Z,951.42
2023-02-06T12:20:26.883Z,951.41
2023-02-06T12:21:26.632Z,951.36
2023-02-06T12:22:27.672Z,951.37
2023-02-06T12:23:28.603Z,951.34
2023-02-06T12:24:28.823Z,951.32
2023-02-06T12:25:29.884Z,951.35
2023-02-06T12:26:30.025Z,951.3
2023-02-06T12:27:30.229Z,951.31
2023-02-06T12:28:30.719Z,951.33
2023-02-06T12:29:30.932Z,951.31
2023-02-06T12:30:31.852Z,951.27
2023-02-06T12:31:32.599Z,951.26
2023-02-06T12:32:32.958Z,951.21
2023-02-06T12:33:33.359Z,951.18
2023-02-06T12:34:34.347Z,951.16
2023-02-06T12:35:35.587Z,951.14
2023-02-06T12:36:35.874Z,951.1
2023-02-06T12:37:36.805Z,951.04
2023-02-06T12:38:37.308Z,951.04